Time;durP1;ratioP1;P1;durP2;ratioP2;P2;SDS_P1;SDS_P2;PMS_P1;PMS_P2;Temp;Humidity;BMP_temperature;BMP_pressure;BME280_temperature;BME280_humidity;BME280_pressure;Samples;Min_cycle;Max_cycle;Signal;HPM_P1;HPM_P2
2024/01/04 00:02:13;;;;;;;0.52;0.52;;;;;;;7.41;100.00;98323.31;4942370;29;20133;-82
2024/01/04 00:04:43;;;;;;;4.90;0.93;;;;;;;7.36;100.00;98335.63;4936194;29;20051;-81
2024/01/04 00:07:09;;;;;;;1.40;0.30;;;;;;;7.33;100.00;98335.75;4939647;29;20051;-83
2024/01/04 00:09:36;;;;;;;1.30;0.43;;;;;;;7.33;100.00;98341.78;4946816;29;20043;-82
2024/01/04 00:12:03;;;;;;;1.30;0.30;;;;;;;7.28;100.00;98333.28;4912079;29;20143;-82
2024/01/04 00:14:29;;;;;;;1.40;0.70;;;;;;;7.21;100.00;98337.84;4928855;29;20412;-81
2024/01/04 00:16:55;;;;;;;1.63;0.63;;;;;;;7.21;100.00;98340.44;4909943;29;20142;-82
2024/01/04 00:19:22;;;;;;;1.08;0.52;;;;;;;7.20;100.00;98346.53;4928817;29;20118;-82
2024/01/04 00:21:49;;;;;;;2.20;0.90;;;;;;;7.18;100.00;98348.31;4917783;29;20051;-82
2024/01/04 00:24:15;;;;;;;1.13;0.65;;;;;;;7.24;100.00;98348.13;4946488;29;20074;-83
2024/01/04 00:26:42;;;;;;;1.27;0.98;;;;;;;7.28;100.00;98352.34;4910430;29;20047;-83
2024/01/04 00:29:11;;;;;;;4.03;1.13;;;;;;;7.31;100.00;98348.78;4946726;29;20051;-82
2024/01/04 00:31:37;;;;;;;3.38;1.33;;;;;;;7.26;100.00;98346.34;4933407;29;20054;-84
2024/01/04 00:34:05;;;;;;;3.13;0.98;;;;;;;7.28;100.00;98351.50;4935311;29;20051;-82
2024/01/04 00:36:32;;;;;;;2.33;0.98;;;;;;;7.32;100.00;98358.31;4921606;29;20044;-84
2024/01/04 00:39:01;;;;;;;3.22;2.17;;;;;;;7.35;100.00;98360.78;4918678;29;20051;-85
2024/01/04 00:41:28;;;;;;;3.08;1.13;;;;;;;7.29;100.00;98361.84;4921676;29;20124;-82
2024/01/04 00:43:54;;;;;;;1.10;0.70;;;;;;;7.38;100.00;98365.03;4914745;29;20055;-82
2024/01/04 00:46:21;;;;;;;4.15;1.50;;;;;;;7.44;100.00;98357.91;4918774;29;20054;-82
2024/01/04 00:48:50;;;;;;;5.18;1.40;;;;;;;7.49;100.00;98360.34;4919030;29;20055;-83
2024/01/04 00:51:16;;;;;;;5.07;1.48;;;;;;;7.50;100.00;98374.22;4922290;29;20051;-83
2024/01/04 00:53:44;;;;;;;7.05;1.88;;;;;;;7.51;100.00;98368.09;4918896;29;20107;-82
2024/01/04 00:56:11;;;;;;;1.52;1.30;;;;;;;7.58;100.00;98372.22;4935915;29;20050;-82
2024/01/04 00:58:37;;;;;;;2.70;2.08;;;;;;;7.59;100.00;98364.34;4927995;29;20043;-84
2024/01/04 01:01:04;;;;;;;5.65;2.60;;;;;;;7.65;100.00;98367.66;4920935;29;20501;-84
2024/01/04 01:03:31;;;;;;;2.60;1.77;;;;;;;7.72;100.00;98369.16;4919206;29;20158;-84
2024/01/04 01:05:58;;;;;;;2.28;1.55;;;;;;;7.65;100.00;98373.69;4930652;29;20779;-83
2024/01/04 01:08:25;;;;;;;3.65;2.72;;;;;;;7.66;100.00;98374.56;4925974;29;20047;-82
2024/01/04 01:10:52;;;;;;;7.53;3.00;;;;;;;7.67;100.00;98381.47;4912008;29;20117;-82
2024/01/04 01:13:22;;;;;;;5.78;1.75;;;;;;;7.65;100.00;98386.72;4927961;29;20055;-82
2024/01/04 01:15:48;;;;;;;3.25;2.05;;;;;;;7.65;100.00;98391.91;4914667;29;20052;-82
2024/01/04 01:18:15;;;;;;;5.40;3.05;;;;;;;7.61;100.00;98395.53;4926046;29;20520;-82
2024/01/04 01:20:41;;;;;;;4.00;2.13;;;;;;;7.55;100.00;98387.94;4913590;29;20170;-83
2024/01/04 01:23:08;;;;;;;2.13;1.77;;;;;;;7.52;100.00;98396.72;4918583;28;20043;-82
2024/01/04 01:25:35;;;;;;;2.47;1.48;;;;;;;7.53;100.00;98406.19;4952791;29;20085;-82
2024/01/04 01:28:02;;;;;;;3.65;1.30;;;;;;;7.45;100.00;98401.25;4932906;29;20436;-82
2024/01/04 01:30:29;;;;;;;5.80;1.40;;;;;;;7.48;100.00;98412.47;4916217;29;20439;-81
2024/01/04 01:32:56;;;;;;;3.92;1.48;;;;;;;7.45;100.00;98416.84;4930409;29;20127;-82
2024/01/04 01:35:23;;;;;;;2.53;1.40;;;;;;;7.41;100.00;98420.47;4935634;29;20051;-84
2024/01/04 01:37:49;;;;;;;2.08;1.52;;;;;;;7.47;100.00;98405.56;4921601;29;20055;-83
2024/01/04 01:40:19;;;;;;;4.38;1.42;;;;;;;7.46;100.00;98420.34;4931906;29;20292;-83
2024/01/04 01:42:49;;;;;;;3.95;1.23;;;;;;;7.50;100.00;98424.53;4920282;29;20059;-83
2024/01/04 01:45:17;;;;;;;1.75;1.55;;;;;;;7.48;100.00;98423.72;4930910;29;20485;-83
2024/01/04 01:47:48;;;;;;;1.73;1.10;;;;;;;7.48;100.00;98430.69;4935384;29;20488;-84
2024/01/04 01:50:19;;;;;;;2.67;1.30;;;;;;;7.47;100.00;98419.44;4915515;28;20067;-82
2024/01/04 01:52:48;;;;;;;3.38;1.20;;;;;;;7.49;100.00;98435.00;4932385;29;20057;-84
2024/01/04 01:55:15;;;;;;;5.05;0.50;;;;;;;7.43;100.00;98436.91;4917220;29;20051;-84
2024/01/04 01:57:42;;;;;;;2.28;1.33;;;;;;;7.44;100.00;98438.59;4945145;29;20154;-82
2024/01/04 02:00:15;;;;;;;1.48;0.77;;;;;;;7.45;100.00;98447.25;4944501;29;20043;-82
2024/01/04 02:02:46;;;;;;;1.98;0.47;;;;;;;7.42;100.00;98449.97;4924245;29;20079;-85
2024/01/04 02:05:12;;;;;;;3.30;0.40;;;;;;;7.40;100.00;98454.34;4937966;29;20102;-82
2024/01/04 02:07:39;;;;;;;0.82;0.35;;;;;;;7.43;100.00;98457.72;4915518;29;20059;-82
2024/01/04 02:10:07;;;;;;;1.45;0.57;;;;;;;7.41;100.00;98464.72;4915735;29;20058;-84
2024/01/04 02:12:34;;;;;;;2.85;0.60;;;;;;;7.40;100.00;98460.41;4931682;29;20063;-83
2024/01/04 02:15:00;;;;;;;1.60;1.10;;;;;;;7.42;100.00;98474.25;4934288;29;20052;-84
2024/01/04 02:17:28;;;;;;;1.13;0.73;;;;;;;7.42;100.00;98470.78;4911541;29;20048;-82
2024/01/04 02:19:57;;;;;;;1.50;0.63;;;;;;;7.44;100.00;98485.47;4914196;29;20058;-81
2024/01/04 02:22:24;;;;;;;1.40;1.00;;;;;;;7.41;100.00;98487.31;4929882;29;20075;-82
2024/01/04 02:24:50;;;;;;;2.45;1.38;;;;;;;7.43;100.00;98493.28;4922708;29;20044;-82
2024/01/04 02:27:18;;;;;;;1.60;1.10;;;;;;;7.46;100.00;98493.22;4914966;29;20094;-81
2024/01/04 02:29:45;;;;;;;2.22;1.50;;;;;;;7.48;100.00;98490.56;4927687;29;20590;-83
2024/01/04 02:32:11;;;;;;;3.95;1.67;;;;;;;7.42;100.00;98494.22;4940535;29;20062;-83
2024/01/04 02:34:38;;;;;;;1.77;1.63;;;;;;;7.49;100.00;98505.28;4930039;28;20047;-83
2024/01/04 02:37:07;;;;;;;2.22;1.65;;;;;;;7.47;100.00;98494.06;4932278;29;20047;-82
2024/01/04 02:39:34;;;;;;;2.65;1.50;;;;;;;7.43;100.00;98498.50;4915745;29;20058;-83
2024/01/04 02:42:00;;;;;;;1.40;1.30;;;;;;;7.39;100.00;98502.97;4930766;29;20496;-82
2024/01/04 02:44:27;;;;;;;2.70;1.35;;;;;;;7.38;100.00;98509.06;4912245;29;20050;-82
2024/01/04 02:46:53;;;;;;;2.22;1.40;;;;;;;7.42;100.00;98504.63;4933193;29;20100;-83
2024/01/04 02:49:20;;;;;;;2.22;1.25;;;;;;;7.37;100.00;98512.56;4922861;29;20059;-82
2024/01/04 02:51:46;;;;;;;1.77;1.50;;;;;;;7.42;100.00;98515.88;4916061;29;20055;-81
2024/01/04 02:54:13;;;;;;;5.97;2.28;;;;;;;7.41;100.00;98523.75;4928885;29;20047;-81
2024/01/04 02:56:39;;;;;;;4.70;2.53;;;;;;;7.38;100.00;98522.09;4913581;29;20055;-82
2024/01/04 02:59:07;;;;;;;1.40;1.10;;;;;;;7.38;100.00;98529.03;4910511;29;20472;-84
2024/01/04 03:01:34;;;;;;;5.60;2.10;;;;;;;7.40;100.00;98533.28;4918926;29;20523;-83
2024/01/04 03:04:00;;;;;;;4.05;1.95;;;;;;;7.42;100.00;98538.47;4932520;29;20130;-83
2024/01/04 03:06:30;;;;;;;8.48;3.25;;;;;;;7.40;100.00;98548.91;4918439;29;20142;-82
2024/01/04 03:08:57;;;;;;;1.60;1.42;;;;;;;7.40;100.00;98542.84;4925926;29;20046;-82
2024/01/04 03:11:23;;;;;;;6.20;1.92;;;;;;;7.42;100.00;98541.91;4932494;29;20081;-82
2024/01/04 03:13:50;;;;;;;2.15;1.95;;;;;;;7.45;100.00;98551.38;4929986;29;20051;-82
2024/01/04 03:16:19;;;;;;;2.85;1.70;;;;;;;7.48;100.00;98555.66;4918538;29;20050;-82
2024/01/04 03:18:46;;;;;;;3.65;1.83;;;;;;;7.41;100.00;98561.03;4937978;29;20047;-82
2024/01/04 03:21:13;;;;;;;3.60;1.10;;;;;;;7.44;100.00;98567.91;4948179;29;20051;-81
2024/01/04 03:23:40;;;;;;;1.83;0.95;;;;;;;7.44;100.00;98566.16;4930347;29;20505;-82
2024/01/04 03:26:06;;;;;;;1.27;1.17;;;;;;;7.42;100.00;98565.34;4916604;29;20086;-81
2024/01/04 03:28:33;;;;;;;5.10;1.30;;;;;;;7.42;100.00;98582.72;4942737;29;20388;-81
2024/01/04 03:30:59;;;;;;;2.22;1.17;;;;;;;7.36;100.00;98572.50;4920114;29;20146;-82
2024/01/04 03:33:26;;;;;;;3.28;1.20;;;;;;;7.39;100.00;98568.06;4928318;29;20499;-82
2024/01/04 03:35:52;;;;;;;1.20;1.17;;;;;;;7.39;100.00;98572.38;4929194;29;20142;-83
2024/01/04 03:38:19;;;;;;;2.13;0.90;;;;;;;7.37;100.00;98580.25;4928835;29;20408;-82
2024/01/04 03:40:45;;;;;;;2.92;0.98;;;;;;;7.32;100.00;98583.88;4924000;29;20117;-81
2024/01/04 03:43:13;;;;;;;1.42;1.27;;;;;;;7.29;100.00;98584.84;4887944;29;1060228;-83
2024/01/04 03:45:39;;;;;;;1.60;0.80;;;;;;;7.24;100.00;98582.34;4930511;29;20130;-83
2024/01/04 03:48:07;;;;;;;2.38;0.63;;;;;;;7.21;100.00;98591.97;4928845;29;20035;-82
2024/01/04 03:50:33;;;;;;;1.85;1.00;;;;;;;7.18;100.00;98598.13;4915669;29;20055;-82
2024/01/04 03:53:02;;;;;;;1.10;1.00;;;;;;;7.15;100.00;98611.22;4926160;29;20642;-83
2024/01/04 03:55:28;;;;;;;1.27;0.63;;;;;;;7.11;100.00;98594.00;4915430;29;20063;-81
2024/01/04 03:57:55;;;;;;;0.50;0.50;;;;;;;7.11;100.00;98604.41;4912869;29;20401;-82
2024/01/04 04:00:21;;;;;;;5.47;1.48;;;;;;;7.16;100.00;98617.28;4925709;29;20127;-81
2024/01/04 04:02:48;;;;;;;1.08;0.35;;;;;;;7.18;100.00;98618.09;4933937;29;20114;-81
2024/01/04 04:05:14;;;;;;;1.25;0.80;;;;;;;7.21;100.00;98634.50;4930374;29;20365;-82
2024/01/04 04:07:41;;;;;;;2.60;0.90;;;;;;;6.95;100.00;98632.59;4930880;29;20111;-82
2024/01/04 04:10:08;;;;;;;1.48;0.70;;;;;;;7.04;100.00;98647.09;4915429;29;20297;-82
2024/01/04 04:12:35;;;;;;;4.35;1.02;;;;;;;7.01;100.00;98645.41;4927752;29;20062;-82
2024/01/04 04:15:02;;;;;;;0.95;0.80;;;;;;;6.97;100.00;98653.38;4928828;29;20109;-83
2024/01/04 04:17:29;;;;;;;2.83;1.00;;;;;;;6.89;100.00;98666.56;4932651;29;20058;-81
2024/01/04 04:19:56;;;;;;;1.98;0.52;;;;;;;6.71;100.00;98675.69;4943893;29;20050;-83
2024/01/04 04:22:22;;;;;;;0.73;0.60;;;;;;;6.55;100.00;98680.44;4926271;29;20043;-82
2024/01/04 04:24:49;;;;;;;0.43;0.40;;;;;;;6.36;100.00;98693.88;4917767;29;20051;-82
2024/01/04 04:27:15;;;;;;;0.30;0.20;;;;;;;6.15;100.00;98690.00;4927662;29;20052;-82
2024/01/04 04:29:42;;;;;;;0.85;0.30;;;;;;;6.04;100.00;98697.19;4931565;29;20466;-82
2024/01/04 04:32:12;;;;;;;0.32;0.30;;;;;;;5.92;100.00;98701.72;4915014;29;20043;-82
2024/01/04 04:34:37;;;;;;;2.78;0.68;;;;;;;5.88;100.00;98707.88;4949888;29;20043;-83
2024/01/04 04:37:04;;;;;;;1.13;0.52;;;;;;;5.82;100.00;98700.19;4926875;29;20051;-81
2024/01/04 04:39:31;;;;;;;2.22;0.40;;;;;;;5.75;100.00;98722.84;4906154;29;20429;-82
2024/01/04 04:41:59;;;;;;;0.40;0.40;;;;;;;5.62;100.00;98719.63;4915627;29;20051;-82
2024/01/04 04:44:25;;;;;;;0.35;0.30;;;;;;;5.49;100.00;98731.16;4945771;29;20052;-81
2024/01/04 04:46:53;;;;;;;0.30;0.30;;;;;;;5.45;100.00;98734.69;4914989;29;20139;-82
2024/01/04 04:49:20;;;;;;;0.30;0.30;;;;;;;5.38;100.00;98738.28;4932727;29;20101;-82
2024/01/04 04:51:48;;;;;;;1.90;0.30;;;;;;;5.39;100.00;98738.25;4925414;29;20070;-81
2024/01/04 04:54:19;;;;;;;1.52;0.32;;;;;;;5.32;100.00;98743.56;4913396;29;20052;-82
2024/01/04 04:56:45;;;;;;;0.50;0.40;;;;;;;5.32;100.00;98748.75;4913592;29;20154;-81
2024/01/04 04:59:13;;;;;;;2.67;0.90;;;;;;;5.32;100.00;98756.56;4925542;29;20051;-83
2024/01/04 05:01:41;;;;;;;1.02;0.47;;;;;;;5.32;100.00;98761.75;4926862;29;20063;-82
2024/01/04 05:04:12;;;;;;;1.02;0.60;;;;;;;5.35;100.00;98757.34;4915023;29;20057;-82
2024/01/04 05:06:38;;;;;;;2.90;0.40;;;;;;;5.38;100.00;98753.84;4929099;29;20090;-82
2024/01/04 05:09:05;;;;;;;0.98;0.60;;;;;;;5.37;100.00;98773.75;4913575;29;20106;-83
2024/01/04 05:11:31;;;;;;;2.80;1.88;;;;;;;5.41;100.00;98782.31;4931196;29;20070;-83
2024/01/04 05:13:58;;;;;;;1.80;0.50;;;;;;;5.45;100.00;98782.25;4913068;29;20054;-82
2024/01/04 05:16:24;;;;;;;2.05;0.82;;;;;;;5.45;100.00;98791.78;4917510;29;20055;-82
2024/01/04 05:18:51;;;;;;;1.17;0.63;;;;;;;5.47;100.00;98796.06;4923926;29;20199;-82
2024/01/04 05:21:17;;;;;;;2.78;0.63;;;;;;;5.49;100.00;98801.22;4910635;29;20484;-82
2024/01/04 05:23:45;;;;;;;0.98;0.63;;;;;;;5.55;100.00;98808.88;4911889;29;20086;-83
2024/01/04 05:26:24;;;;;;;1.45;0.75;;;;;;;5.60;100.00;98807.06;4914222;29;20055;-84
2024/01/04 05:28:51;;;;;;;0.95;0.60;;;;;;;5.59;100.00;98807.97;4928946;29;20047;-83
2024/01/04 05:31:21;;;;;;;1.42;0.68;;;;;;;5.55;100.00;98815.81;4913929;29;20055;-82
2024/01/04 05:33:48;;;;;;;0.80;0.80;;;;;;;5.53;100.00;98822.78;4929877;29;20130;-83
2024/01/04 05:36:14;;;;;;;1.95;0.40;;;;;;;5.54;100.00;98820.16;4933307;29;20563;-84
2024/01/04 05:38:41;;;;;;;0.85;0.60;;;;;;;5.54;100.00;98838.34;4925673;29;20054;-83
2024/01/04 05:41:07;;;;;;;0.38;0.38;;;;;;;5.60;100.00;98833.00;4910988;29;20074;-81
2024/01/04 05:43:35;;;;;;;0.63;0.45;;;;;;;5.50;100.00;98847.06;4931977;29;20675;-82
2024/01/04 05:46:05;;;;;;;5.03;0.40;;;;;;;5.40;100.00;98856.72;4943995;29;20051;-81
2024/01/04 05:48:32;;;;;;;0.45;0.45;;;;;;;5.36;100.00;98846.41;4905066;29;20043;-82
2024/01/04 05:50:59;;;;;;;1.05;0.40;;;;;;;5.32;100.00;98855.13;4944618;29;20106;-81
2024/01/04 05:53:25;;;;;;;0.50;0.40;;;;;;;5.37;100.00;98850.72;4912710;29;20054;-81
2024/01/04 05:55:51;;;;;;;0.40;0.40;;;;;;;5.41;100.00;98868.84;4931436;29;20055;-81
2024/01/04 05:58:20;;;;;;;1.05;0.40;;;;;;;5.38;100.00;98875.81;4927246;29;20035;-81
2024/01/04 06:00:47;;;;;;;2.08;0.50;;;;;;;5.39;100.00;98886.16;4905792;29;20047;-81
2024/01/04 06:03:14;;;;;;;0.88;0.45;;;;;;;5.40;100.00;98876.66;4929288;29;20110;-82
2024/01/04 06:05:40;;;;;;;1.08;0.43;;;;;;;5.45;100.00;98887.81;4931788;29;20523;-82
2024/01/04 06:08:07;;;;;;;0.65;0.50;;;;;;;5.43;100.00;98890.41;4908742;29;20102;-82
2024/01/04 06:10:34;;;;;;;1.15;0.50;;;;;;;5.39;100.00;98899.13;4916941;29;20679;-81
2024/01/04 06:13:01;;;;;;;1.33;0.63;;;;;;;5.43;100.00;98910.31;4919771;29;20510;-82
2024/01/04 06:15:28;;;;;;;3.83;0.47;;;;;;;5.41;100.00;98912.94;4912775;29;20099;-82
2024/01/04 06:17:54;;;;;;;3.55;0.70;;;;;;;5.40;100.00;98924.19;4918997;29;20513;-82
2024/01/04 06:20:21;;;;;;;3.13;0.60;;;;;;;5.36;100.00;98922.53;4926372;29;20138;-83
2024/01/04 06:22:48;;;;;;;0.45;0.40;;;;;;;5.39;100.00;98938.03;4935733;29;20551;-82
2024/01/04 06:25:14;;;;;;;2.33;0.52;;;;;;;5.39;100.00;98956.22;4931278;29;20051;-83
2024/01/04 06:27:41;;;;;;;0.60;0.60;;;;;;;5.34;100.00;98941.59;4909845;29;20043;-82
2024/01/04 06:30:08;;;;;;;1.13;0.50;;;;;;;5.25;100.00;98945.19;4938887;29;20043;-82
2024/01/04 06:32:35;;;;;;;1.13;0.55;;;;;;;5.19;100.00;98940.97;4937142;29;20051;-83
2024/01/04 06:35:01;;;;;;;1.73;0.68;;;;;;;5.23;100.00;98963.38;4939398;29;20052;-81
2024/01/04 06:37:29;;;;;;;0.30;0.22;;;;;;;5.30;100.00;98954.59;4939216;29;20461;-81
2024/01/04 06:39:55;;;;;;;1.40;1.40;;;;;;;5.29;100.00;98958.09;4907928;29;20043;-80
2024/01/04 06:42:22;;;;;;;2.17;0.43;;;;;;;5.31;100.00;98963.25;4926916;29;20052;-82
2024/01/04 06:44:48;;;;;;;0.40;0.40;;;;;;;5.24;100.00;98966.81;4929787;29;20051;-81
2024/01/04 06:47:18;;;;;;;0.75;0.40;;;;;;;5.25;100.00;98974.59;4911880;29;20055;-82
2024/01/04 06:49:46;;;;;;;3.13;0.82;;;;;;;5.27;100.00;98985.78;4908041;29;20043;-80
2024/01/04 06:52:13;;;;;;;2.25;0.40;;;;;;;5.25;100.00;98981.50;4924702;29;20539;-79
2024/01/04 06:54:40;;;;;;;1.10;0.30;;;;;;;5.16;100.00;98985.09;4925750;29;20095;-79
2024/01/04 06:57:07;;;;;;;2.90;0.30;;;;;;;5.19;100.00;98994.56;4904344;29;20052;-80
2024/01/04 06:59:35;;;;;;;1.15;0.30;;;;;;;5.08;100.00;99008.53;4925048;29;20051;-79
2024/01/04 07:02:03;;;;;;;0.20;0.20;;;;;;;5.09;100.00;99001.63;4920228;29;20043;-81
2024/01/04 07:04:30;;;;;;;1.27;0.38;;;;;;;5.10;100.00;99013.72;4924807;29;20281;-81
2024/01/04 07:06:57;;;;;;;1.23;0.20;;;;;;;5.06;100.00;99024.97;4923841;29;20158;-80
2024/01/04 07:09:23;;;;;;;2.20;1.13;;;;;;;5.08;100.00;99026.69;4913112;29;20055;-81
2024/01/04 07:11:50;;;;;;;0.75;0.30;;;;;;;5.08;100.00;99044.84;4924937;29;20497;-80
2024/01/04 07:14:16;;;;;;;0.30;0.13;;;;;;;5.03;100.00;99046.66;4929986;29;20043;-82
2024/01/04 07:16:49;;;;;;;3.70;0.65;;;;;;;5.04;100.00;99053.53;4924360;29;20048;-81
2024/01/04 07:19:16;;;;;;;1.48;0.88;;;;;;;5.03;100.00;99061.34;4910050;29;20036;-81
2024/01/04 07:21:43;;;;;;;0.63;0.20;;;;;;;4.94;100.00;99057.13;4920187;29;20509;-81
2024/01/04 07:24:10;;;;;;;1.65;0.30;;;;;;;4.91;100.00;99067.53;4930620;29;20051;-80
2024/01/04 07:26:36;;;;;;;0.63;0.30;;;;;;;4.85;100.00;99067.59;4913133;29;20786;-81
2024/01/04 07:29:04;;;;;;;2.28;0.30;;;;;;;4.78;100.00;99080.66;4927932;29;20052;-81
2024/01/04 07:31:30;;;;;;;3.60;0.22;;;;;;;4.76;100.00;99081.53;4913462;29;20063;-81
2024/01/04 07:33:56;;;;;;;3.03;0.38;;;;;;;4.77;100.00;99091.88;4909337;29;20054;-81
2024/01/04 07:36:23;;;;;;;1.27;0.22;;;;;;;4.72;100.00;99097.97;4914121;29;20100;-82
2024/01/04 07:38:49;;;;;;;3.45;0.20;;;;;;;4.70;100.00;99100.59;4921040;29;20044;-81
2024/01/04 07:41:16;;;;;;;1.92;0.17;;;;;;;4.59;100.00;99103.28;4940504;29;20052;-81
2024/01/04 07:43:42;;;;;;;1.30;0.25;;;;;;;4.64;100.00;99100.63;4928171;29;20417;-81
2024/01/04 07:46:09;;;;;;;0.50;0.45;;;;;;;4.70;100.00;99115.28;4925513;29;20051;-82
2024/01/04 07:48:35;;;;;;;3.78;0.32;;;;;;;4.70;100.00;99123.91;4914959;29;20593;-83
2024/01/04 07:51:02;;;;;;;1.55;0.52;;;;;;;4.75;100.00;99124.72;4925238;29;20134;-82
2024/01/04 07:53:28;;;;;;;4.43;0.43;;;;;;;4.79;100.00;99122.97;4927045;29;20043;-81
2024/01/04 07:55:55;;;;;;;1.73;0.47;;;;;;;4.82;100.00;99130.72;4909436;29;20564;-81
2024/01/04 07:58:21;;;;;;;2.17;0.30;;;;;;;4.83;100.00;99134.19;4914832;29;20043;-82
2024/01/04 08:00:48;;;;;;;0.43;0.20;;;;;;;4.85;100.00;99143.66;4931168;29;20048;-81
2024/01/04 08:03:14;;;;;;;1.50;0.30;;;;;;;4.90;100.00;99143.59;4909380;29;20409;-82
2024/01/04 08:05:43;;;;;;;1.98;0.40;;;;;;;4.79;100.00;99146.31;4915294;29;20417;-82
2024/01/04 08:08:09;;;;;;;1.67;0.38;;;;;;;4.84;100.00;99154.91;4926820;29;20059;-82
2024/01/04 08:10:36;;;;;;;0.52;0.50;;;;;;;4.79;100.00;99161.88;4913972;29;20051;-82
2024/01/04 08:13:03;;;;;;;1.30;0.45;;;;;;;4.82;100.00;99154.03;4912791;29;20059;-81
2024/01/04 08:15:33;;;;;;;1.48;0.40;;;;;;;4.88;100.00;99166.97;4911965;29;20051;-82
2024/01/04 08:18:02;;;;;;;0.57;0.30;;;;;;;4.86;100.00;99175.63;4936651;29;20054;-81
2024/01/04 08:20:29;;;;;;;2.30;0.47;;;;;;;4.79;100.00;99182.59;4928863;29;20059;-81
2024/01/04 08:22:56;;;;;;;2.67;0.95;;;;;;;4.73;100.00;99195.63;4918948;29;20047;-82
2024/01/04 08:25:24;;;;;;;0.90;0.55;;;;;;;4.64;100.00;99188.75;4927163;29;20111;-82
2024/01/04 08:27:50;;;;;;;0.90;0.80;;;;;;;4.51;100.00;99190.63;4931437;29;20043;-81
2024/01/04 08:30:20;;;;;;;1.40;0.40;;;;;;;4.47;100.00;99189.78;4919711;29;20051;-83
2024/01/04 08:32:46;;;;;;;0.60;0.43;;;;;;;4.45;100.00;99204.47;4912356;28;20400;-81
2024/01/04 08:35:13;;;;;;;0.30;0.30;;;;;;;4.57;100.00;99213.88;4930129;29;20051;-82
2024/01/04 08:37:40;;;;;;;0.40;0.40;;;;;;;4.66;100.00;99215.53;4896533;29;20055;-81
2024/01/04 08:40:08;;;;;;;1.50;0.40;;;;;;;4.55;100.00;99226.00;4924811;29;20505;-81
2024/01/04 08:42:34;;;;;;;2.85;0.30;;;;;;;4.59;100.00;99226.84;4913545;29;20062;-80
2024/01/04 08:45:05;;;;;;;1.50;0.28;;;;;;;4.42;100.00;99238.19;4915343;29;20568;-83
2024/01/04 08:47:32;;;;;;;1.08;0.30;;;;;;;4.29;100.00;99237.41;4928960;29;20567;-81
2024/01/04 08:50:00;;;;;;;2.13;0.50;;;;;;;4.38;100.00;99253.75;4933397;29;20075;-81
2024/01/04 08:52:28;;;;;;;0.98;0.20;;;;;;;4.32;100.00;99244.28;4927345;29;20043;-81
2024/01/04 08:54:55;;;;;;;1.55;0.28;;;;;;;4.31;100.00;99245.16;4911375;29;20054;-81
2024/01/04 08:57:21;;;;;;;0.25;0.20;;;;;;;4.37;100.00;99254.63;4922038;29;20117;-81
2024/01/04 08:59:48;;;;;;;0.60;0.17;;;;;;;4.39;100.00;99253.72;4913877;29;20040;-80
2024/01/04 09:02:15;;;;;;;1.08;0.20;;;;;;;4.33;100.00;99255.50;4926041;29;20052;-81
2024/01/04 09:04:41;;;;;;;1.08;0.20;;;;;;;4.25;100.00;99259.03;4925885;29;20521;-81
2024/01/04 09:07:08;;;;;;;0.57;0.30;;;;;;;4.28;100.00;99266.75;4939289;29;20047;-80
2024/01/04 09:09:36;;;;;;;1.13;0.93;;;;;;;4.39;100.00;99266.69;4931073;29;20054;-79
2024/01/04 09:12:03;;;;;;;0.43;0.32;;;;;;;4.38;100.00;99272.75;4941226;28;20476;-81
2024/01/04 09:14:31;;;;;;;0.57;0.57;;;;;;;4.39;100.00;99273.63;4942701;29;20047;-79
2024/01/04 09:16:58;;;;;;;1.13;0.70;;;;;;;4.38;100.00;99279.66;4910210;29;20043;-80
2024/01/04 09:19:25;;;;;;;2.63;0.70;;;;;;;4.42;100.00;99283.94;4915798;29;20047;-80
2024/01/04 09:21:52;;;;;;;0.43;0.38;;;;;;;4.43;100.00;99286.56;4924195;29;20047;-81
2024/01/04 09:24:20;;;;;;;0.60;0.50;;;;;;;4.38;100.00;99290.03;4911652;29;20051;-80
2024/01/04 09:26:50;;;;;;;1.73;0.50;;;;;;;4.41;100.00;99305.56;4939433;29;20071;-81
2024/01/04 09:29:17;;;;;;;0.85;0.65;;;;;;;4.46;100.00;99309.00;4914610;29;20420;-80
2024/01/04 09:31:44;;;;;;;2.38;0.40;;;;;;;4.49;100.00;99311.56;4918289;29;20523;-81
2024/01/04 09:34:10;;;;;;;0.70;0.70;;;;;;;4.56;100.00;99318.44;4916334;29;20059;-80
2024/01/04 09:36:39;;;;;;;1.88;1.00;;;;;;;4.66;100.00;99323.56;4929981;29;20051;-81
2024/01/04 09:39:07;;;;;;;2.30;1.02;;;;;;;4.80;100.00;99340.75;4907788;29;20130;-82
2024/01/04 09:41:44;;;;;;;1.38;1.27;;;;;;;4.99;100.00;99343.19;4926898;29;20078;-79
2024/01/04 09:44:11;;;;;;;3.58;2.38;;;;;;;4.95;100.00;99344.97;4927410;28;20036;-80
2024/01/04 09:46:41;;;;;;;2.17;1.85;;;;;;;4.95;100.00;99350.16;4898503;29;20142;-80
2024/01/04 09:49:09;;;;;;;1.95;1.75;;;;;;;4.98;100.00;99346.69;4926098;29;20043;-79
2024/01/04 09:51:41;;;;;;;3.10;1.77;;;;;;;5.00;100.00;99355.28;4913794;29;20094;-80
2024/01/04 09:54:10;;;;;;;2.65;1.73;;;;;;;4.93;100.00;99353.63;4921247;29;20043;-80
2024/01/04 09:56:43;;;;;;;2.33;2.13;;;;;;;5.06;100.00;99369.94;4909300;29;20040;-81
2024/01/04 09:59:14;;;;;;;2.00;1.65;;;;;;;5.09;100.00;99375.13;4932266;29;20053;-80
2024/01/04 10:01:41;;;;;;;2.50;1.58;;;;;;;5.06;100.00;99362.16;4941658;29;20066;-81
2024/01/04 10:04:16;;;;;;;2.65;1.60;;;;;;;5.09;100.00;99370.78;4923152;29;20810;-81
2024/01/04 10:06:44;;;;;;;2.75;2.03;;;;;;;5.28;100.00;99379.31;4925628;29;20984;-82
2024/01/04 10:09:35;;;;;;;4.35;1.83;;;;;;;5.30;100.00;99374.94;4912436;29;20040;-81
2024/01/04 10:12:08;;;;;;;2.63;2.08;;;;;;;5.29;100.00;99381.03;4908626;29;20054;-82
2024/01/04 10:14:36;;;;;;;3.47;1.67;;;;;;;5.46;100.00;99391.28;4910507;29;20171;-80
2024/01/04 10:17:03;;;;;;;1.00;0.90;;;;;;;5.46;100.00;99400.78;4927663;29;20138;-80
2024/01/04 10:19:35;;;;;;;1.85;0.85;;;;;;;5.39;100.00;99399.97;4939968;29;20480;-80
2024/01/04 10:22:04;;;;;;;1.77;0.95;;;;;;;5.29;100.00;99403.50;4910337;29;20400;-80
2024/01/04 10:24:37;;;;;;;1.42;1.10;;;;;;;5.36;100.00;99410.38;4944096;29;20047;-81
2024/01/04 10:27:07;;;;;;;1.58;0.93;;;;;;;5.38;100.00;99418.16;4914306;29;20122;-80
2024/01/04 10:29:37;;;;;;;2.70;1.85;;;;;;;5.28;100.00;99423.41;4924819;29;20118;-80
2024/01/04 10:32:12;;;;;;;1.30;1.20;;;;;;;5.19;100.00;99426.06;4917942;29;20054;-81
2024/01/04 10:34:40;;;;;;;1.90;1.80;;;;;;;5.17;100.00;99429.56;4907073;29;20138;-82
2024/01/04 10:37:09;;;;;;;2.88;2.25;;;;;;;5.08;100.00;99433.06;4929272;29;20043;-82
2024/01/04 10:39:37;;;;;;;2.28;2.10;;;;;;;4.95;100.00;99430.56;4924465;29;20047;-83
2024/01/04 10:42:05;;;;;;;4.32;1.88;;;;;;;4.79;100.00;99436.69;4921842;29;20066;-81
2024/01/04 10:44:33;;;;;;;2.70;1.80;;;;;;;4.87;100.00;99444.44;4938006;29;20044;-82
2024/01/04 10:47:01;;;;;;;2.17;1.98;;;;;;;4.94;100.00;99439.19;4929382;29;20999;-79
2024/01/04 10:49:29;;;;;;;1.85;1.52;;;;;;;4.89;100.00;99448.72;4914653;29;20040;-80
2024/01/04 10:51:58;;;;;;;1.60;1.50;;;;;;;5.06;100.00;99455.53;4928698;29;20556;-81
2024/01/04 10:54:34;;;;;;;1.70;1.60;;;;;;;5.17;100.00;99455.50;4927621;29;20047;-82
2024/01/04 10:57:06;;;;;;;2.25;2.00;;;;;;;5.30;100.00;99457.13;4926693;29;20240;-83
2024/01/04 10:59:33;;;;;;;2.05;1.83;;;;;;;5.25;100.00;99457.19;4925662;29;20044;-81
2024/01/04 11:02:03;;;;;;;4.53;1.70;;;;;;;5.26;100.00;99466.66;4915232;29;20048;-81
2024/01/04 11:04:31;;;;;;;2.25;1.67;;;;;;;5.12;100.00;99461.59;4916976;29;20127;-80
2024/01/04 11:07:01;;;;;;;1.88;1.50;;;;;;;5.08;100.00;99465.03;4925839;29;20118;-81
2024/01/04 11:09:27;;;;;;;4.45;1.38;;;;;;;5.12;100.00;99471.06;4913578;29;20131;-82
2024/01/04 11:11:56;;;;;;;2.40;1.20;;;;;;;5.24;99.45;99468.41;4928072;29;20398;-81
2024/01/04 11:14:24;;;;;;;2.22;1.35;;;;;;;5.31;97.79;99477.03;4918128;29;20138;-80
2024/01/04 11:17:35;;;;;;;4.72;1.77;;;;;;;5.18;95.67;99477.97;4928765;29;20146;-82
2024/01/04 11:20:29;;;;;;;5.75;1.35;;;;;;;5.18;96.16;99488.34;4945829;29;20748;-82
2024/01/04 11:23:46;;;;;;;2.80;1.58;;;;;;;5.32;95.69;99490.84;4946345;29;20134;-80
2024/01/04 11:26:28;;;;;;;1.33;1.23;;;;;;;5.40;95.46;99487.34;4929375;29;20048;-82
2024/01/04 11:28:57;;;;;;;1.98;1.10;;;;;;;5.41;95.66;99483.00;4915521;29;20044;-81
2024/01/04 11:31:27;;;;;;;1.85;1.60;;;;;;;5.27;92.31;99494.34;4932906;29;20043;-80
2024/01/04 11:33:54;;;;;;;5.80;3.50;;;;;;;5.18;90.79;99490.94;4934381;29;20050;-81
2024/01/04 11:36:21;;;;;;;1.90;1.77;;;;;;;5.14;89.89;99490.94;4915957;29;20044;-80
2024/01/04 11:38:49;;;;;;;4.18;3.33;;;;;;;5.00;90.55;99489.31;4906609;29;20074;-81